Time;durP1;ratioP1;P1;durP2;ratioP2;P2;SDS_P1;SDS_P2;PMS_P1;PMS_P2;Temp;Humidity;BMP_temperature;BMP_pressure;BME280_temperature;BME280_humidity;BME280_pressure;Samples;Min_cycle;Max_cycle;Signal;HPM_P1;HPM_P2
2021/01/12 00:00:29;;;;;;;15.48;3.92;;;7.40;93.30;;;;;;5044906;28;20071;-80
2021/01/12 00:02:56;;;;;;;12.65;3.83;;;7.40;93.40;;;;;;5048138;28;20025;-79
2021/01/12 00:05:22;;;;;;;16.75;4.28;;;7.40;93.40;;;;;;5045075;28;20033;-78
2021/01/12 00:07:48;;;;;;;15.40;4.43;;;7.50;93.40;;;;;;5045709;28;20509;-80
2021/01/12 00:10:14;;;;;;;15.23;4.05;;;7.40;93.50;;;;;;5048054;28;20041;-78
2021/01/12 00:12:40;;;;;;;21.27;5.40;;;7.50;93.70;;;;;;5046488;28;20029;-78
2021/01/12 00:15:07;;;;;;;14.52;4.22;;;7.50;93.70;;;;;;5047440;28;20338;-80
2021/01/12 00:17:33;;;;;;;13.45;4.30;;;7.50;93.70;;;;;;5046892;28;20051;-80
2021/01/12 00:19:58;;;;;;;15.95;3.95;;;7.60;93.70;;;;;;5047830;28;20053;-82
2021/01/12 00:22:24;;;;;;;16.20;4.28;;;7.50;93.70;;;;;;5046732;28;20383;-78
2021/01/12 00:24:51;;;;;;;16.63;4.30;;;7.50;93.80;;;;;;5046323;28;20041;-78
2021/01/12 00:27:22;;;;;;;11.07;4.00;;;7.60;93.80;;;;;;5048029;28;20025;-78
2021/01/12 00:29:48;;;;;;;15.98;4.28;;;7.60;93.70;;;;;;5050296;28;20074;-78
2021/01/12 00:32:19;;;;;;;10.80;3.40;;;7.60;93.70;;;;;;5047840;28;20021;-81
2021/01/12 00:34:45;;;;;;;15.25;4.70;;;7.60;93.70;;;;;;5051497;28;20025;-79
2021/01/12 00:37:11;;;;;;;14.77;5.05;;;7.60;93.70;;;;;;5044495;28;20082;-79
2021/01/12 00:39:37;;;;;;;13.38;4.50;;;7.60;93.80;;;;;;5045149;28;20029;-78
2021/01/12 00:42:03;;;;;;;13.93;5.30;;;7.60;93.80;;;;;;5045863;28;20479;-79
2021/01/12 00:44:29;;;;;;;13.65;5.20;;;7.60;93.90;;;;;;5044653;28;20040;-78
2021/01/12 00:46:55;;;;;;;10.35;5.10;;;7.70;93.90;;;;;;5051827;28;20772;-79
2021/01/12 00:49:22;;;;;;;13.20;5.45;;;7.70;93.80;;;;;;5048390;28;20044;-79
2021/01/12 00:51:48;;;;;;;12.65;5.10;;;7.80;93.80;;;;;;5046884;28;20036;-78
2021/01/12 00:54:15;;;;;;;13.27;5.07;;;7.80;93.80;;;;;;5041495;28;20471;-80
2021/01/12 00:56:42;;;;;;;12.63;5.10;;;7.80;93.90;;;;;;5046313;28;20037;-78
2021/01/12 00:59:08;;;;;;;14.43;5.18;;;7.80;93.90;;;;;;5045029;28;20060;-79
2021/01/12 01:01:34;;;;;;;13.45;5.22;;;7.70;94.00;;;;;;5045010;28;20134;-80
2021/01/12 01:04:00;;;;;;;12.75;5.45;;;7.80;94.00;;;;;;5052268;28;20048;-79
2021/01/12 01:06:26;;;;;;;10.98;4.50;;;7.80;94.00;;;;;;5052190;28;20360;-83
2021/01/12 01:08:52;;;;;;;12.43;4.57;;;7.80;94.10;;;;;;5054324;28;20041;-79
2021/01/12 01:11:18;;;;;;;12.13;4.70;;;7.70;94.10;;;;;;5055180;28;20032;-78
2021/01/12 01:13:44;;;;;;;11.27;4.45;;;7.70;94.20;;;;;;5053890;28;20035;-79
2021/01/12 01:16:10;;;;;;;10.18;3.95;;;7.70;94.20;;;;;;5052407;28;20047;-78
2021/01/12 01:18:36;;;;;;;11.85;4.47;;;7.80;94.20;;;;;;5053134;28;20150;-78
2021/01/12 01:21:01;;;;;;;11.18;4.13;;;7.80;94.30;;;;;;5055465;28;20048;-78
2021/01/12 01:23:27;;;;;;;11.40;4.70;;;7.80;94.20;;;;;;5053580;28;20435;-79
2021/01/12 01:25:53;;;;;;;10.52;4.72;;;7.80;94.20;;;;;;5050677;28;20119;-80
2021/01/12 01:28:22;;;;;;;10.32;4.78;;;7.90;94.20;;;;;;5058081;28;20426;-79
2021/01/12 01:30:49;;;;;;;10.02;5.00;;;7.90;94.10;;;;;;5057575;28;20392;-80
2021/01/12 01:33:15;;;;;;;11.73;5.05;;;7.90;94.10;;;;;;5053841;28;20084;-79
2021/01/12 01:35:42;;;;;;;14.90;5.25;;;7.90;94.10;;;;;;5059867;28;20056;-79
2021/01/12 01:38:08;;;;;;;11.77;5.88;;;7.90;94.10;;;;;;5052731;28;20110;-79
2021/01/12 01:40:34;;;;;;;9.05;4.65;;;7.90;94.00;;;;;;5053379;28;20480;-79
2021/01/12 01:42:59;;;;;;;10.60;4.80;;;7.90;94.10;;;;;;5053605;28;20055;-81
2021/01/12 01:45:25;;;;;;;11.48;5.05;;;7.90;94.10;;;;;;5053263;28;20132;-79
2021/01/12 01:47:51;;;;;;;9.23;4.47;;;8.00;94.00;;;;;;5052897;28;21234;-79
2021/01/12 01:50:19;;;;;;;10.23;4.63;;;8.00;94.00;;;;;;5053155;28;20079;-78
2021/01/12 01:52:49;;;;;;;12.70;4.65;;;8.00;93.90;;;;;;5052078;28;20467;-78
2021/01/12 01:55:15;;;;;;;13.30;4.20;;;8.00;94.00;;;;;;5052579;28;20490;-79
2021/01/12 01:57:41;;;;;;;12.43;4.45;;;8.00;93.80;;;;;;5053177;28;20031;-78
2021/01/12 02:00:08;;;;;;;9.60;4.50;;;8.00;93.80;;;;;;5052242;28;20032;-82
2021/01/12 02:02:45;;;;;;;9.10;4.20;;;8.10;93.80;;;;;;5055896;28;20044;-80
2021/01/12 02:05:13;;;;;;;11.60;4.47;;;8.00;93.80;;;;;;5054157;28;20025;-79
2021/01/12 02:07:44;;;;;;;13.57;4.95;;;8.10;93.90;;;;;;5052033;28;20028;-80
2021/01/12 02:10:12;;;;;;;14.25;5.50;;;8.10;93.80;;;;;;5054358;28;20033;-79
2021/01/12 02:12:54;;;;;;;10.52;5.07;;;8.10;93.80;;;;;;5065301;28;20476;-79
2021/01/12 02:15:23;;;;;;;13.88;5.30;;;8.10;93.90;;;;;;5047872;28;20143;-79
2021/01/12 02:17:50;;;;;;;13.20;5.25;;;8.10;93.90;;;;;;5054678;28;20033;-79
2021/01/12 02:20:16;;;;;;;13.70;5.40;;;8.10;93.90;;;;;;5051882;28;20098;-80
2021/01/12 02:22:46;;;;;;;14.48;5.30;;;8.10;94.00;;;;;;5050726;28;20468;-79
2021/01/12 02:25:16;;;;;;;12.02;5.00;;;8.10;94.10;;;;;;5049380;28;20471;-79
2021/01/12 02:27:42;;;;;;;10.48;5.15;;;8.10;94.20;;;;;;5049240;28;20087;-79
2021/01/12 02:30:09;;;;;;;12.45;4.68;;;8.10;94.10;;;;;;5048939;28;20025;-79
2021/01/12 02:32:35;;;;;;;11.35;5.28;;;8.10;94.10;;;;;;5049136;28;20387;-79
2021/01/12 02:35:02;;;;;;;11.25;5.10;;;8.20;94.10;;;;;;5051123;28;20503;-79
2021/01/12 02:37:29;;;;;;;13.40;5.80;;;8.10;94.20;;;;;;5046956;28;20361;-80
2021/01/12 02:39:58;;;;;;;12.95;6.00;;;8.10;94.30;;;;;;5050062;28;20041;-78
2021/01/12 02:42:25;;;;;;;13.95;6.75;;;8.20;94.30;;;;;;5048128;28;20056;-78
2021/01/12 02:44:51;;;;;;;13.07;5.88;;;8.20;94.30;;;;;;5050168;28;20033;-78
2021/01/12 02:47:16;;;;;;;12.90;6.20;;;8.20;94.30;;;;;;5047370;28;20040;-79
2021/01/12 02:49:43;;;;;;;12.70;6.00;;;8.20;94.30;;;;;;5054785;28;20117;-78
2021/01/12 02:52:13;;;;;;;13.82;6.72;;;8.30;94.30;;;;;;5049129;28;20036;-78
2021/01/12 02:54:42;;;;;;;12.80;6.55;;;8.30;94.30;;;;;;5054483;28;20361;-78
2021/01/12 02:57:08;;;;;;;12.73;6.53;;;8.30;94.30;;;;;;5048390;28;20033;-78
2021/01/12 02:59:34;;;;;;;10.85;5.80;;;8.30;94.30;;;;;;5052116;28;20086;-79
2021/01/12 03:01:59;;;;;;;15.88;6.40;;;8.40;94.30;;;;;;5045012;28;20032;-79
2021/01/12 03:04:25;;;;;;;13.00;6.50;;;8.40;94.20;;;;;;5048514;28;20039;-79
2021/01/12 03:06:51;;;;;;;12.45;5.85;;;8.40;94.10;;;;;;5049330;28;20033;-81
2021/01/12 03:09:16;;;;;;;14.02;5.57;;;8.40;94.20;;;;;;5044563;28;20060;-79
2021/01/12 03:11:42;;;;;;;14.82;6.43;;;8.40;94.30;;;;;;5048338;28;20480;-78
2021/01/12 03:14:08;;;;;;;11.40;6.22;;;8.40;94.30;;;;;;5052393;28;20464;-79
2021/01/12 03:16:36;;;;;;;15.07;6.07;;;8.40;94.20;;;;;;5049882;28;20447;-80
2021/01/12 03:19:03;;;;;;;13.07;6.18;;;8.40;94.30;;;;;;5048365;28;20032;-78
2021/01/12 03:21:29;;;;;;;13.25;5.30;;;8.40;94.30;;;;;;5053471;28;20123;-79
2021/01/12 03:23:55;;;;;;;12.02;5.57;;;8.40;94.20;;;;;;5049453;28;20123;-81
2021/01/12 03:26:21;;;;;;;15.73;5.80;;;8.50;94.20;;;;;;5044218;28;20396;-79
2021/01/12 03:28:47;;;;;;;10.48;4.80;;;8.50;94.10;;;;;;5046764;28;20064;-79
2021/01/12 03:31:13;;;;;;;12.85;5.03;;;8.50;94.10;;;;;;5044833;28;20080;-78
2021/01/12 03:33:39;;;;;;;13.02;5.25;;;8.50;94.10;;;;;;5050805;28;20020;-78
2021/01/12 03:36:04;;;;;;;13.23;4.93;;;8.50;94.00;;;;;;5043774;28;20032;-78
2021/01/12 03:38:30;;;;;;;12.25;5.13;;;8.50;94.00;;;;;;5050916;28;20093;-81
2021/01/12 03:40:55;;;;;;;13.88;4.75;;;8.50;94.10;;;;;;5045119;28;20041;-79
2021/01/12 03:43:21;;;;;;;12.05;4.22;;;8.50;94.10;;;;;;5049886;28;20033;-80
2021/01/12 03:45:47;;;;;;;11.32;4.13;;;8.50;94.10;;;;;;5048479;28;20025;-78
2021/01/12 03:48:12;;;;;;;9.93;3.70;;;8.50;94.10;;;;;;5047778;28;20446;-79
2021/01/12 03:50:38;;;;;;;12.68;4.57;;;8.50;94.00;;;;;;5048919;28;20040;-82
2021/01/12 03:53:04;;;;;;;11.13;3.90;;;8.50;94.10;;;;;;5047532;28;20095;-78
2021/01/12 03:55:30;;;;;;;11.90;3.55;;;8.60;94.20;;;;;;5050133;28;20083;-78
2021/01/12 03:57:56;;;;;;;16.23;3.97;;;8.50;94.20;;;;;;5046987;28;20035;-82
2021/01/12 04:00:22;;;;;;;14.95;3.80;;;8.50;94.20;;;;;;5046362;28;20049;-78
2021/01/12 04:02:48;;;;;;;12.48;3.45;;;8.50;94.20;;;;;;5047893;28;20037;-79
2021/01/12 04:05:14;;;;;;;11.15;3.65;;;8.60;94.30;;;;;;5048616;28;20040;-82
2021/01/12 04:07:39;;;;;;;9.02;3.17;;;8.60;94.30;;;;;;5051146;28;20063;-80
2021/01/12 04:10:06;;;;;;;11.15;3.55;;;8.50;94.40;;;;;;5045312;28;20376;-79
2021/01/12 04:12:32;;;;;;;10.18;3.75;;;8.50;94.40;;;;;;5045332;28;20021;-78
2021/01/12 04:14:58;;;;;;;12.02;4.40;;;8.60;94.40;;;;;;5053168;28;20035;-79
2021/01/12 04:17:24;;;;;;;9.73;3.97;;;8.60;94.30;;;;;;5046231;28;20025;-78
2021/01/12 04:19:49;;;;;;;9.00;3.80;;;8.60;94.30;;;;;;5048992;28;20036;-79
2021/01/12 04:22:15;;;;;;;11.38;3.70;;;8.60;94.30;;;;;;5047200;28;20033;-79
2021/01/12 04:24:41;;;;;;;9.63;3.25;;;8.60;94.30;;;;;;5046244;28;20418;-78
2021/01/12 04:27:06;;;;;;;8.75;2.92;;;8.60;94.40;;;;;;5045845;28;20033;-78
2021/01/12 04:29:32;;;;;;;10.45;3.45;;;8.60;94.40;;;;;;5046680;28;20463;-78
2021/01/12 04:31:58;;;;;;;10.25;3.10;;;8.60;94.30;;;;;;5041765;28;20052;-79
2021/01/12 04:34:23;;;;;;;10.75;3.03;;;8.60;94.20;;;;;;5044788;28;20177;-79
2021/01/12 04:36:49;;;;;;;11.82;2.90;;;8.60;94.20;;;;;;5048340;28;20395;-79
2021/01/12 04:39:15;;;;;;;8.80;2.75;;;8.60;94.30;;;;;;5045050;28;20106;-78
2021/01/12 04:41:41;;;;;;;10.02;3.42;;;8.60;94.40;;;;;;5049514;28;20495;-79
2021/01/12 04:44:06;;;;;;;10.80;4.93;;;8.60;94.50;;;;;;5048561;28;20037;-78
2021/01/12 04:46:32;;;;;;;12.18;3.53;;;8.60;94.50;;;;;;5044274;28;20053;-79
2021/01/12 04:48:58;;;;;;;11.93;3.35;;;8.60;94.50;;;;;;5045464;28;20036;-80
2021/01/12 04:51:25;;;;;;;9.70;3.35;;;8.60;94.40;;;;;;5045117;28;20491;-78
2021/01/12 04:53:51;;;;;;;9.68;2.70;;;8.70;94.30;;;;;;5046112;28;20384;-78
2021/01/12 04:56:18;;;;;;;10.32;3.13;;;8.70;94.10;;;;;;5052207;28;20041;-80
2021/01/12 04:58:45;;;;;;;7.45;2.45;;;8.70;94.00;;;;;;5051529;28;20068;-78
2021/01/12 05:01:13;;;;;;;7.85;3.03;;;8.70;94.00;;;;;;5048089;28;20049;-79
2021/01/12 05:03:52;;;;;;;13.40;3.97;;;8.70;93.90;;;;;;5045112;28;20416;-78
2021/01/12 05:06:21;;;;;;;9.48;4.32;;;8.70;93.90;;;;;;5044743;28;20131;-78
2021/01/12 05:08:57;;;;;;;13.55;5.50;;;8.70;93.90;;;;;;5043468;28;20033;-79
2021/01/12 05:11:29;;;;;;;13.50;5.75;;;8.70;94.00;;;;;;5044806;28;20032;-79
2021/01/12 05:14:16;;;;;;;10.70;5.05;;;8.70;94.10;;;;;;5044080;28;20486;-81
2021/01/12 05:16:53;;;;;;;12.50;5.75;;;8.60;94.20;;;;;;5042017;28;20032;-79
2021/01/12 05:19:26;;;;;;;10.10;4.47;;;8.60;94.30;;;;;;5047148;28;20139;-78
2021/01/12 05:21:54;;;;;;;13.18;4.28;;;8.70;94.40;;;;;;5042374;28;20540;-79
2021/01/12 05:24:21;;;;;;;11.07;4.18;;;8.60;94.30;;;;;;5047157;28;20088;-79
2021/01/12 05:26:48;;;;;;;9.30;3.85;;;8.60;94.30;;;;;;5042450;28;20207;-79
2021/01/12 05:29:14;;;;;;;9.90;4.03;;;8.60;94.30;;;;;;5042815;28;20039;-79
2021/01/12 05:31:45;;;;;;;11.00;3.28;;;8.60;94.30;;;;;;5045280;28;20476;-82
2021/01/12 05:34:12;;;;;;;12.63;3.10;;;8.70;94.20;;;;;;5044491;28;20029;-78
2021/01/12 05:36:48;;;;;;;9.52;2.95;;;8.70;94.00;;;;;;5047189;28;20039;-78
2021/01/12 05:39:22;;;;;;;14.65;3.35;;;8.70;93.90;;;;;;5046329;28;20037;-79
2021/01/12 05:41:49;;;;;;;11.85;3.55;;;8.70;94.00;;;;;;5046077;28;20045;-79
2021/01/12 05:44:17;;;;;;;12.70;3.70;;;8.70;93.70;;;;;;5045582;28;20116;-79
2021/01/12 05:46:44;;;;;;;12.43;4.70;;;8.70;93.80;;;;;;5046202;28;20472;-79
2021/01/12 05:49:10;;;;;;;13.27;5.50;;;8.70;93.70;;;;;;5048528;28;20044;-79
2021/01/12 05:51:47;;;;;;;14.43;6.10;;;8.70;93.60;;;;;;5047499;28;20029;-77
2021/01/12 05:54:33;;;;;;;11.98;6.30;;;8.80;93.60;;;;;;5047404;28;20060;-79
2021/01/12 05:57:23;;;;;;;11.32;5.25;;;8.80;93.40;;;;;;5047247;28;20037;-79
2021/01/12 05:59:52;;;;;;;13.00;5.78;;;8.80;93.30;;;;;;5046464;28;20037;-78
2021/01/12 06:02:20;;;;;;;13.57;5.28;;;8.90;93.30;;;;;;5048711;28;20060;-80
2021/01/12 06:04:50;;;;;;;18.33;6.40;;;8.80;93.40;;;;;;5046613;28;20163;-78
2021/01/12 06:07:17;;;;;;;15.15;5.30;;;8.80;93.50;;;;;;5057351;28;20033;-80
2021/01/12 06:09:45;;;;;;;15.07;6.47;;;8.80;93.60;;;;;;5048575;28;20451;-80
2021/01/12 06:12:14;;;;;;;14.43;5.18;;;8.70;93.70;;;;;;5046194;28;20068;-80
2021/01/12 06:14:49;;;;;;;11.88;5.18;;;8.70;93.80;;;;;;5048544;28;20033;-81
2021/01/12 06:17:15;;;;;;;;;;;8.70;94.00;;;;;;5049458;28;20041;-79
2021/01/12 06:19:47;;;;;;;11.82;4.30;;;8.70;94.00;;;;;;5050415;28;19920;-83
2021/01/12 06:22:16;;;;;;;10.82;4.15;;;8.70;94.00;;;;;;5046743;28;20499;-81
2021/01/12 06:25:06;;;;;;;13.57;4.10;;;8.70;93.90;;;;;;5048091;28;20120;-81
2021/01/12 06:27:33;;;;;;;12.68;3.17;;;8.70;94.00;;;;;;5052300;28;20028;-81
2021/01/12 06:30:07;;;;;;;11.25;3.30;;;8.70;93.90;;;;;;5046554;28;20322;-80
2021/01/12 06:32:35;;;;;;;11.25;3.50;;;8.70;94.00;;;;;;5050789;28;20045;-79
2021/01/12 06:35:08;;;;;;;14.13;5.75;;;8.70;94.00;;;;;;5046299;28;20036;-79
2021/01/12 06:37:40;;;;;;;10.63;4.05;;;8.70;94.10;;;;;;5048428;28;20033;-79
2021/01/12 06:40:08;;;;;;;10.90;3.70;;;8.70;94.00;;;;;;5050297;28;20128;-80
2021/01/12 06:42:36;;;;;;;15.05;4.00;;;8.70;94.00;;;;;;5047804;28;20454;-80
2021/01/12 06:45:02;;;;;;;13.82;3.63;;;8.70;94.00;;;;;;5047519;28;20041;-80
2021/01/12 06:47:29;;;;;;;12.23;4.07;;;8.70;93.90;;;;;;5048721;28;20408;-79
2021/01/12 06:50:10;;;;;;;12.48;3.65;;;8.70;93.90;;;;;;5048533;28;20128;-80
2021/01/12 06:52:45;;;;;;;11.02;3.53;;;8.70;93.90;;;;;;5054835;28;20037;-80
2021/01/12 06:55:13;;;;;;;14.68;4.40;;;8.70;93.70;;;;;;5051175;28;20144;-80
2021/01/12 06:57:46;;;;;;;14.90;3.40;;;8.80;93.70;;;;;;5046405;28;20029;-79
2021/01/12 07:00:14;;;;;;;11.75;3.17;;;8.80;93.50;;;;;;5045795;28;20033;-79
2021/01/12 07:02:40;;;;;;;14.23;3.92;;;8.80;93.40;;;;;;5049291;28;20064;-81
2021/01/12 07:05:05;;;;;;;10.55;2.92;;;8.80;93.30;;;;;;5046876;28;20064;-79
2021/01/12 07:07:52;;;;;;;8.70;3.15;;;8.80;93.30;;;;;;5047706;28;20049;-82
2021/01/12 07:10:20;;;;;;;11.65;3.30;;;8.80;93.30;;;;;;5049147;28;20045;-79
2021/01/12 07:12:47;;;;;;;12.35;3.50;;;8.80;93.20;;;;;;5048652;28;20056;-81
2021/01/12 07:15:18;;;;;;;14.07;3.72;;;8.80;93.10;;;;;;5048884;28;20025;-80
2021/01/12 07:17:47;;;;;;;13.15;3.38;;;8.80;93.00;;;;;;5045259;28;20031;-80
2021/01/12 07:20:14;;;;;;;15.70;3.45;;;8.80;93.10;;;;;;5046193;28;20025;-72
2021/01/12 07:22:42;;;;;;;14.82;4.00;;;8.80;93.10;;;;;;5041999;28;20449;-71
2021/01/12 07:25:11;;;;;;;12.40;3.20;;;8.80;93.20;;;;;;5044460;28;20037;-71
2021/01/12 07:27:37;;;;;;;13.05;4.43;;;8.80;93.20;;;;;;5043345;28;20037;-72
2021/01/12 07:30:07;;;;;;;15.00;4.55;;;8.80;93.20;;;;;;5045014;28;20021;-73
2021/01/12 07:32:35;;;;;;;18.30;4.40;;;8.80;93.30;;;;;;5045496;28;20498;-71
2021/01/12 07:35:07;;;;;;;14.15;4.15;;;8.80;93.40;;;;;;5046511;28;20041;-72
2021/01/12 07:37:39;;;;;;;16.85;3.97;;;8.80;93.30;;;;;;5042410;28;20083;-71
2021/01/12 07:40:07;;;;;;;16.80;4.80;;;8.80;93.30;;;;;;5047167;28;20450;-71
2021/01/12 07:42:33;;;;;;;16.10;4.30;;;8.90;93.20;;;;;;5049730;28;20031;-73
2021/01/12 07:44:59;;;;;;;13.90;3.95;;;8.80;93.10;;;;;;5048732;28;20040;-72
2021/01/12 07:47:25;;;;;;;15.13;4.45;;;8.80;93.20;;;;;;5050078;28;20135;-72
2021/01/12 07:49:51;;;;;;;14.20;4.50;;;8.80;93.20;;;;;;5048276;28;20029;-71
2021/01/12 07:52:18;;;;;;;15.07;4.68;;;8.80;93.20;;;;;;5044230;28;20138;-71
2021/01/12 07:54:45;;;;;;;15.60;4.88;;;8.80;93.20;;;;;;5047857;28;20500;-72
2021/01/12 07:57:11;;;;;;;17.67;5.60;;;8.80;93.30;;;;;;5047921;28;20086;-71
2021/01/12 07:59:38;;;;;;;19.15;4.97;;;8.80;93.40;;;;;;5045102;28;20060;-72
2021/01/12 08:02:05;;;;;;;13.55;4.72;;;8.80;93.60;;;;;;5045417;28;20090;-72
2021/01/12 08:04:32;;;;;;;19.27;5.47;;;8.80;93.70;;;;;;5047021;28;21228;-70
2021/01/12 08:06:59;;;;;;;19.00;5.93;;;8.80;93.70;;;;;;5040472;28;20025;-70
2021/01/12 08:09:25;;;;;;;19.67;7.53;;;8.80;93.70;;;;;;5048573;28;20035;-70
2021/01/12 08:11:54;;;;;;;18.75;7.28;;;8.80;93.70;;;;;;5048927;28;20032;-71
2021/01/12 08:14:26;;;;;;;16.20;5.68;;;8.80;93.70;;;;;;5044895;28;20154;-71
2021/01/12 08:16:55;;;;;;;16.88;5.82;;;8.80;93.70;;;;;;5045240;28;20037;-71
2021/01/12 08:19:25;;;;;;;16.77;7.35;;;8.80;93.70;;;;;;5043470;28;20136;-71
2021/01/12 08:21:51;;;;;;;16.45;8.20;;;8.80;93.60;;;;;;5044989;28;20068;-70
2021/01/12 08:24:25;;;;;;;13.45;5.50;;;8.80;93.60;;;;;;5043947;28;20041;-70
2021/01/12 08:26:51;;;;;;;11.00;4.00;;;8.70;93.00;;;;;;5047796;28;20460;-70
2021/01/12 08:29:24;;;;;;;10.38;3.35;;;8.60;93.00;;;;;;5039754;28;20148;-71
2021/01/12 08:32:02;;;;;;;6.82;2.60;;;8.60;92.90;;;;;;5046418;28;20079;-70
2021/01/12 08:34:30;;;;;;;4.35;2.00;;;8.50;92.60;;;;;;5046058;28;20380;-71
2021/01/12 08:37:01;;;;;;;6.72;1.98;;;8.40;92.50;;;;;;5042868;28;20029;-72
2021/01/12 08:39:31;;;;;;;8.65;3.05;;;8.40;92.60;;;;;;5045931;28;20029;-71
2021/01/12 08:41:58;;;;;;;7.05;3.70;;;8.30;92.80;;;;;;5043432;28;20040;-71
2021/01/12 08:44:26;;;;;;;10.82;3.40;;;8.30;93.00;;;;;;5047816;28;20037;-73
2021/01/12 08:46:53;;;;;;;12.75;3.80;;;8.30;93.00;;;;;;5044603;28;20036;-71
2021/01/12 08:49:35;;;;;;;11.02;4.30;;;8.30;93.00;;;;;;5055222;28;20036;-73
2021/01/12 08:52:02;;;;;;;9.82;3.95;;;8.30;93.10;;;;;;5038388;28;20070;-71
2021/01/12 08:54:28;;;;;;;7.55;3.05;;;8.30;93.00;;;;;;5046494;28;20035;-70
2021/01/12 08:57:04;;;;;;;8.00;3.15;;;8.20;93.20;;;;;;5045024;28;20545;-70
2021/01/12 08:59:34;;;;;;;12.32;4.38;;;8.30;93.00;;;;;;5045511;28;20025;-70
2021/01/12 09:02:00;;;;;;;14.50;5.40;;;8.30;93.00;;;;;;5045352;28;20073;-71
2021/01/12 09:04:29;;;;;;;15.18;5.05;;;8.20;93.00;;;;;;5046124;28;20025;-70
2021/01/12 09:07:04;;;;;;;12.18;5.03;;;8.30;92.80;;;;;;5043686;28;20494;-72
2021/01/12 09:09:30;;;;;;;10.27;3.88;;;8.30;92.90;;;;;;5050332;28;20559;-70
2021/01/12 09:12:00;;;;;;;14.32;5.30;;;8.30;92.80;;;;;;5048985;28;20041;-71
2021/01/12 09:14:27;;;;;;;10.50;4.88;;;8.20;92.80;;;;;;5040467;28;20052;-73
2021/01/12 09:17:16;;;;;;;10.45;4.63;;;8.30;92.80;;;;;;5044052;28;20032;-70
2021/01/12 09:19:42;;;;;;;10.90;4.20;;;8.20;93.00;;;;;;5045412;28;20111;-70
2021/01/12 09:22:15;;;;;;;11.00;3.38;;;8.20;93.20;;;;;;5047738;28;20041;-71
2021/01/12 09:24:51;;;;;;;10.43;4.13;;;8.20;93.20;;;;;;5047327;28;20375;-71
2021/01/12 09:27:22;;;;;;;8.32;3.65;;;8.10;93.20;;;;;;5045491;28;20033;-71
2021/01/12 09:29:48;;;;;;;11.70;3.85;;;8.20;93.30;;;;;;5048978;28;20496;-74
2021/01/12 09:32:34;;;;;;;11.48;3.97;;;8.20;93.30;;;;;;5049048;28;20120;-69
2021/01/12 09:35:01;;;;;;;10.60;4.68;;;8.20;93.30;;;;;;5048633;28;20360;-70
2021/01/12 09:37:26;;;;;;;9.48;3.88;;;8.20;93.30;;;;;;5050606;28;20470;-69
2021/01/12 09:39:59;;;;;;;9.52;4.15;;;8.20;93.20;;;;;;5047687;28;20033;-70
2021/01/12 09:42:27;;;;;;;9.48;3.72;;;8.30;93.10;;;;;;5048079;28;20387;-72
2021/01/12 09:44:54;;;;;;;9.07;4.10;;;8.30;93.00;;;;;;5047760;28;20130;-71
2021/01/12 09:47:21;;;;;;;10.75;4.53;;;8.30;93.00;;;;;;5051919;28;20345;-71
2021/01/12 09:49:47;;;;;;;10.68;4.18;;;8.30;93.00;;;;;;5049273;28;20024;-70
2021/01/12 09:52:13;;;;;;;13.75;4.70;;;8.30;92.90;;;;;;5050074;28;20033;-72
2021/01/12 09:54:41;;;;;;;7.78;4.05;;;8.30;93.00;;;;;;5051530;28;20048;-69
2021/01/12 09:57:08;;;;;;;8.82;4.40;;;8.20;93.10;;;;;;5052383;28;20037;-72
2021/01/12 09:59:34;;;;;;;10.68;4.60;;;8.20;93.20;;;;;;5046158;28;20045;-70
2021/01/12 10:02:00;;;;;;;11.77;4.60;;;8.20;93.20;;;;;;5050833;28;20431;-71
2021/01/12 10:04:25;;;;;;;9.75;4.30;;;8.20;92.90;;;;;;5047258;28;20865;-70
2021/01/12 10:06:58;;;;;;;9.75;4.40;;;8.20;92.80;;;;;;5044112;28;20032;-69
2021/01/12 10:09:25;;;;;;;10.88;4.97;;;8.20;92.70;;;;;;5048533;28;20041;-72
2021/01/12 10:11:50;;;;;;;10.32;4.28;;;8.20;92.40;;;;;;5048638;28;20029;-71
2021/01/12 10:14:18;;;;;;;10.05;4.78;;;8.20;92.20;;;;;;5048410;28;20373;-77
2021/01/12 10:16:44;;;;;;;13.10;6.10;;;8.30;91.80;;;;;;5049236;28;20476;-71
2021/01/12 10:19:09;;;;;;;13.38;5.10;;;8.30;91.60;;;;;;5049195;28;20095;-74
2021/01/12 10:21:35;;;;;;;10.05;5.07;;;8.30;91.20;;;;;;5051470;28;20488;-70
2021/01/12 10:24:01;;;;;;;14.93;5.47;;;8.30;91.10;;;;;;5046341;28;20033;-70
2021/01/12 10:26:27;;;;;;;9.88;4.88;;;8.30;90.90;;;;;;5048663;28;20555;-70
2021/01/12 10:28:52;;;;;;;12.68;5.40;;;8.40;90.50;;;;;;5047318;28;20045;-70
2021/01/12 10:31:20;;;;;;;9.88;4.88;;;8.40;90.50;;;;;;5048716;28;20041;-72
2021/01/12 10:33:47;;;;;;;11.57;5.55;;;8.40;90.50;;;;;;5049696;28;20042;-70
2021/01/12 10:36:14;;;;;;;10.52;4.88;;;8.40;90.40;;;;;;5048160;28;20029;-71
2021/01/12 10:38:40;;;;;;;11.82;5.30;;;8.50;90.30;;;;;;5050369;28;20095;-72
2021/01/12 10:41:06;;;;;;;13.30;5.82;;;8.50;90.50;;;;;;5048732;28;20037;-73
2021/01/12 10:43:32;;;;;;;10.20;5.03;;;8.60;90.50;;;;;;5048437;28;20113;-74
2021/01/12 10:46:00;;;;;;;12.02;4.90;;;8.60;90.30;;;;;;5046468;28;20557;-72
2021/01/12 10:48:26;;;;;;;9.43;4.28;;;8.60;89.90;;;;;;5047790;28;20033;-72
2021/01/12 10:50:51;;;;;;;11.35;4.90;;;8.60;89.40;;;;;;5051498;28;20087;-72
2021/01/12 10:53:17;;;;;;;11.38;4.20;;;8.70;89.40;;;;;;5047924;28;20032;-70
2021/01/12 10:55:43;;;;;;;12.13;4.68;;;8.70;89.10;;;;;;5051394;28;20044;-71
2021/01/12 10:58:08;;;;;;;10.68;4.13;;;8.80;88.60;;;;;;5046412;28;20037;-75
2021/01/12 11:00:34;;;;;;;10.40;3.70;;;8.90;88.50;;;;;;5047878;28;20355;-70
2021/01/12 11:03:00;;;;;;;10.70;3.40;;;8.90;87.30;;;;;;5050024;28;20037;-72
2021/01/12 11:05:25;;;;;;;12.30;3.58;;;8.90;87.50;;;;;;5048225;28;20025;-70
2021/01/12 11:07:51;;;;;;;10.25;2.72;;;8.90;87.30;;;;;;5046033;28;20037;-71
2021/01/12 11:10:17;;;;;;;11.32;3.30;;;8.70;86.60;;;;;;5046927;28;20072;-73
2021/01/12 11:12:47;;;;;;;8.60;2.88;;;8.60;86.70;;;;;;5048706;28;20484;-72
2021/01/12 11:15:13;;;;;;;8.35;2.70;;;8.50;86.80;;;;;;5049524;28;20044;-72
2021/01/12 11:17:40;;;;;;;9.70;2.72;;;8.40;86.70;;;;;;5046809;28;20473;-72
2021/01/12 11:20:08;;;;;;;10.98;2.35;;;8.30;85.80;;;;;;5044907;28;20033;-72
2021/01/12 11:22:33;;;;;;;6.03;1.60;;;8.10;85.30;;;;;;5048678;28;20033;-73
2021/01/12 11:25:01;;;;;;;6.57;1.83;;;7.90;84.80;;;;;;5054113;28;20053;-73
2021/01/12 11:27:28;;;;;;;5.60;1.30;;;7.80;84.60;;;;;;5049288;28;20051;-71
2021/01/12 11:29:54;;;;;;;3.58;1.30;;;7.70;84.80;;;;;;5050220;28;20435;-72
2021/01/12 11:32:21;;;;;;;4.45;1.52;;;7.70;84.70;;;;;;5047065;28;20405;-75
2021/01/12 11:34:47;;;;;;;5.68;1.50;;;7.70;84.90;;;;;;5049366;28;20426;-72
2021/01/12 11:37:13;;;;;;;3.60;1.23;;;7.70;85.30;;;;;;5048051;28;20021;-71
2021/01/12 11:39:39;;;;;;;5.60;1.50;;;7.70;85.40;;;;;;5048175;28;20129;-72
2021/01/12 11:42:08;;;;;;;5.53;1.55;;;7.90;84.50;;;;;;5049442;28;20088;-71
2021/01/12 11:44:34;;;;;;;5.63;1.65;;;8.10;83.90;;;;;;5041134;28;20033;-71
2021/01/12 11:47:00;;;;;;;11.20;3.53;;;8.20;83.90;;;;;;5052054;28;20037;-71
2021/01/12 11:49:25;;;;;;;7.03;2.17;;;8.10;83.80;;;;;;5046122;28;20033;-72
2021/01/12 11:51:51;;;;;;;7.47;2.30;;;8.00;84.40;;;;;;5043775;28;20033;-73
2021/01/12 11:54:19;;;;;;;4.45;1.50;;;8.00;84.70;;;;;;5042430;28;20483;-71
2021/01/12 11:56:55;;;;;;;8.98;3.10;;;8.20;85.10;;;;;;5046599;28;20044;-71
2021/01/12 11:59:24;;;;;;;9.18;2.53;;;8.30;84.30;;;;;;5046164;28;20040;-71
2021/01/12 12:01:50;;;;;;;6.45;1.23;;;8.40;83.70;;;;;;5044547;28;20434;-77
2021/01/12 12:04:17;;;;;;;9.95;4.45;;;8.60;83.10;;;;;;5048177;28;20029;-70
2021/01/12 12:06:47;;;;;;;12.00;6.35;;;8.50;82.20;;;;;;5040701;28;20051;-73
2021/01/12 12:09:13;;;;;;;10.63;3.28;;;8.60;82.90;;;;;;5048453;28;20112;-71
2021/01/12 12:11:39;;;;;;;10.90;3.40;;;8.60;83.10;;;;;;5046987;28;20131;-72
2021/01/12 12:14:07;;;;;;;6.13;1.60;;;8.60;82.60;;;;;;5045056;28;20029;-72
2021/01/12 12:16:34;;;;;;;4.47;1.10;;;8.40;81.40;;;;;;5048548;28;20036;-72
2021/01/12 12:19:00;;;;;;;8.80;2.08;;;8.20;81.90;;;;;;5050725;28;20479;-70
2021/01/12 12:21:26;;;;;;;4.72;1.20;;;8.00;83.40;;;;;;5049617;28;20041;-69
2021/01/12 12:23:52;;;;;;;6.65;1.73;;;7.90;83.90;;;;;;5049726;28;20484;-71
2021/01/12 12:26:18;;;;;;;5.53;2.00;;;8.00;84.60;;;;;;5046913;28;20037;-72
2021/01/12 12:28:44;;;;;;;4.30;1.40;;;7.90;84.00;;;;;;5051471;28;20032;-72
2021/01/12 12:31:13;;;;;;;7.03;1.60;;;8.00;84.40;;;;;;5047205;28;20049;-72
2021/01/12 12:33:39;;;;;;;7.88;1.73;;;8.00;84.60;;;;;;5046295;28;20040;-71
2021/01/12 12:36:07;;;;;;;6.50;1.60;;;7.90;83.20;;;;;;5048452;28;20055;-71
2021/01/12 12:38:36;;;;;;;6.55;1.45;;;7.90;83.60;;;;;;5046068;28;20036;-71
2021/01/12 12:41:09;;;;;;;8.07;1.88;;;7.90;84.00;;;;;;5049733;28;20033;-70
2021/01/12 12:43:35;;;;;;;5.13;1.50;;;7.80;83.00;;;;;;5047093;28;20033;-71
2021/01/12 12:46:01;;;;;;;5.38;1.88;;;7.70;83.10;;;;;;5046526;28;20480;-72
2021/01/12 12:48:27;;;;;;;5.57;1.55;;;7.70;82.90;;;;;;5044475;28;20033;-72
2021/01/12 12:50:55;;;;;;;5.93;1.30;;;7.80;83.60;;;;;;5048195;28;20523;-76
2021/01/12 12:53:22;;;;;;;7.93;2.10;;;7.80;83.60;;;;;;5045902;28;20039;-72